Earl Gonsoulin — WDC3306 — position and weather

sailwx.info

Track history (hours):
 
Tides and Currents Weather Stations Pressure Air Temp Water Temp Dewpoint Dewpoint Depression Visibility Wind Speed Wind Dir Waves Ship Positions

Earl Gonsoulin

Owner: LeBeouf Bros. Towing, L.L.C., Houma, LA. More information available from US FCC via Universal Licensing System and Coast Guard Vessel Documentation Center.

Last reported at 2016-Feb-08 01:33 UTC. Time now 2016-Feb-08 02:09 UTC.
Position N 30°05' W 093°20'.

Length 21 m; draft 3 m.

Type: Tug. MMSI: 367005550.

Date/timePositionNaut miles runAvg speedWind from/ knotsBaromVisibWave heightAir tempDewpointWater temp
2016-Feb-08 01:33N 30°05' W 093°20'0 0.4
2016-Feb-08 00:33N 30°05' W 093°20'0 0.0
2016-Feb-07 23:33N 30°05' W 093°20'0 0.0
2016-Feb-07 22:33N 30°05' W 093°20'0 0.0
2016-Feb-07 21:33N 30°05' W 093°20'0 0.0
2016-Feb-07 20:33N 30°05' W 093°20'0 0.0
2016-Feb-07 19:33N 30°05' W 093°20'0 0.0
2016-Feb-07 18:33N 30°05' W 093°20'0 0.0
2016-Feb-07 17:33N 30°05' W 093°20'0 0.0
2016-Feb-07 16:34N 30°05' W 093°20'0 0.0
2016-Feb-07 15:33N 30°05' W 093°20'0 0.2
2016-Feb-07 14:33N 30°05' W 093°20'3 3.0
2016-Feb-07 13:33N 30°04' W 093°22'2 2.0
2016-Feb-07 12:33N 30°04' W 093°25'6 5.6
2016-Feb-07 11:33N 30°04' W 093°31'4 3.7
2016-Feb-07 10:33N 30°04' W 093°35'6 6.3
2016-Feb-07 09:33N 30°03' W 093°43'6 5.8
2016-Feb-07 08:33N 29°59' W 093°48'6 6.2
2016-Feb-07 07:32N 29°55' W 093°53'65 3.1
2016-Feb-06 10:33N 29°44' W 095°07'0 0.0
2016-Feb-06 09:33N 29°44' W 095°07'0 0.0
2016-Feb-06 08:31N 29°44' W 095°07'0 0.0
2016-Feb-06 07:33N 29°44' W 095°07'0 0.0
2016-Feb-06 06:29N 29°44' W 095°07'0 0.0
2016-Feb-06 05:31N 29°44' W 095°07'0 0.0
2016-Feb-06 04:29N 29°44' W 095°07'0 0.3
2016-Feb-06 03:25N 29°44' W 095°07'4 1.5
2016-Feb-06 00:28N 29°48' W 095°04'0 0.0
2016-Feb-05 23:23N 29°47' W 095°04'2 0.1
2016-Feb-04 04:12N 29°46' W 095°06'2 0.8
2016-Feb-04 01:33N 29°47' W 095°04'1 0.9
2016-Feb-04 00:19N 29°46' W 095°05'4 5.3
2016-Feb-03 23:32N 29°43' W 095°01'7 6.8
2016-Feb-03 22:33N 29°38' W 094°58'41 2.5
2016-Feb-03 06:20N 29°41' W 094°11'4 4.9
2016-Feb-03 05:33N 29°43' W 094°07'5 5.1
2016-Feb-03 04:33N 29°46' W 094°03'5 4.9
2016-Feb-03 03:33N 29°49' W 093°58'5 4.8
2016-Feb-03 02:33N 29°53' W 093°55'5 5.2
2016-Feb-03 01:33N 29°57' W 093°52'1 1.1
2016-Feb-03 00:33N 29°58' W 093°51'1 0.8
2016-Feb-02 23:33N 29°58' W 093°52'0 0.0
2016-Feb-02 22:33N 29°58' W 093°52'1 0.7
2016-Feb-02 21:33N 29°58' W 093°51'4 3.5
2016-Feb-02 20:33N 29°60' W 093°47'5 4.7
2016-Feb-02 19:29N 30°03' W 093°43'0 0.2
2016-Feb-02 18:30N 30°03' W 093°43'0 0.0
2016-Feb-02 17:33N 30°03' W 093°43'0 0.0
2016-Feb-02 16:33N 30°03' W 093°43'0 0.0
2016-Feb-02 13:06N 30°03' W 093°43'0 0.0
2016-Feb-02 12:33N 30°03' W 093°43'0 0.0
2016-Feb-02 11:33N 30°03' W 093°43'0 0.0
2016-Feb-02 10:33N 30°03' W 093°43'0 0.0
2016-Feb-02 09:33N 30°03' W 093°43'0 0.0
2016-Feb-02 08:33N 30°03' W 093°43'0 0.0
2016-Feb-02 07:33N 30°03' W 093°43'0 0.0
2016-Feb-02 06:33N 30°03' W 093°43'0 0.0
2016-Feb-02 05:26N 30°03' W 093°43'0 0.0
2016-Feb-02 04:30N 30°03' W 093°43'0 0.0
2016-Feb-02 03:33N 30°03' W 093°43'0 0.0
2016-Feb-02 02:32N 30°03' W 093°43'0 0.1
2016-Feb-02 01:33N 30°04' W 093°43'1 0.7
2016-Feb-02 00:33N 30°03' W 093°42'5 5.3
2016-Feb-01 23:33N 30°04' W 093°36'5 4.8
2016-Feb-01 22:33N 30°04' W 093°31'5 4.8
2016-Feb-01 21:34N 30°04' W 093°25'4 4.3
2016-Feb-01 20:33N 30°05' W 093°20'4 4.2
2016-Feb-01 19:33N 30°09' W 093°20'2 2.5
2016-Feb-01 18:33N 30°11' W 093°18'0 0.1
2016-Feb-01 17:33N 30°11' W 093°18'0 0.1
2016-Feb-01 16:33N 30°11' W 093°18'0 0.0
2016-Feb-01 15:33N 30°11' W 093°18'0 0.0
2016-Feb-01 14:33N 30°11' W 093°18'0 0.0
2016-Feb-01 13:33N 30°11' W 093°18'0 0.0
2016-Feb-01 12:33N 30°11' W 093°18'0 0.0
2016-Feb-01 11:33N 30°11' W 093°18'0 0.0
2016-Feb-01 10:33N 30°11' W 093°18'0 0.0
2016-Feb-01 09:33N 30°11' W 093°18'0 0.0
2016-Feb-01 08:33N 30°11' W 093°18'0 0.0
2016-Feb-01 07:33N 30°11' W 093°18'0 0.0
2016-Feb-01 06:33N 30°11' W 093°18'1 0.6
2016-Feb-01 05:33N 30°11' W 093°18'3 3.3
2016-Feb-01 04:33N 30°14' W 093°15'0 0.2
2016-Feb-01 03:33N 30°14' W 093°15'0 0.0
2016-Feb-01 02:33N 30°14' W 093°15'0 0.0
2016-Feb-01 01:33N 30°14' W 093°15'0 0.0
2016-Feb-01 00:33N 30°14' W 093°15'0 0.0
2016-Jan-31 23:33N 30°14' W 093°15'0 0.0
2016-Jan-31 22:33N 30°14' W 093°15'0 0.0
2016-Jan-31 21:33N 30°14' W 093°15'0 0.0
2016-Jan-31 20:33N 30°14' W 093°15'0 0.0
2016-Jan-31 19:33N 30°14' W 093°15'0 0.0
2016-Jan-31 18:33N 30°14' W 093°15'0 0.0
2016-Jan-31 17:33N 30°14' W 093°15'0 0.0
2016-Jan-31 16:33N 30°14' W 093°15'0 0.0
2016-Jan-31 15:33N 30°14' W 093°15'0 0.0
2016-Jan-31 14:33N 30°14' W 093°15'0 0.0
2016-Jan-31 13:33N 30°14' W 093°15'0 0.0
2016-Jan-31 12:34N 30°14' W 093°15'0 0.0
2016-Jan-31 11:33N 30°14' W 093°15'0 0.0
2016-Jan-31 10:33N 30°14' W 093°15'0 0.0
2016-Jan-31 09:33N 30°14' W 093°15'0 0.0
2016-Jan-31 08:33N 30°14' W 093°15'0 0.0
2016-Jan-31 07:33N 30°14' W 093°15'0 0.0
2016-Jan-31 06:33N 30°14' W 093°15'0 0.0
2016-Jan-31 05:33N 30°14' W 093°15'0 0.0
2016-Jan-31 04:33N 30°14' W 093°15'0 0.0
2016-Jan-31 03:33N 30°14' W 093°15'0 0.0
2016-Jan-31 02:33N 30°14' W 093°15'0 0.0
2016-Jan-31 01:33N 30°14' W 093°15'0 0.0
2016-Jan-31 00:33N 30°14' W 093°15'0 0.0
2016-Jan-30 23:33N 30°14' W 093°15'0 0.0
2016-Jan-30 22:33N 30°14' W 093°15'0 0.0
2016-Jan-30 21:33N 30°14' W 093°15'0 0.0
2016-Jan-30 20:33N 30°14' W 093°15'0 0.0
2016-Jan-30 19:33N 30°14' W 093°15'0 0.0
2016-Jan-30 18:33N 30°14' W 093°15'0 0.0
2016-Jan-30 17:33N 30°14' W 093°15'0 0.0
2016-Jan-30 16:33N 30°14' W 093°15'0 0.0
2016-Jan-30 15:33N 30°14' W 093°15'0 0.0
2016-Jan-30 14:33N 30°14' W 093°15'0 0.0
2016-Jan-30 13:33N 30°14' W 093°15'0 0.0
2016-Jan-30 12:33N 30°14' W 093°15'0 0.0
2016-Jan-30 11:34N 30°14' W 093°15'0 0.0
2016-Jan-30 10:33N 30°14' W 093°15'0 0.0
2016-Jan-30 09:33N 30°14' W 093°15'0 0.0
2016-Jan-30 08:33N 30°14' W 093°15'0 0.0
2016-Jan-30 07:33N 30°14' W 093°15'0 0.0
2016-Jan-30 06:33N 30°14' W 093°15'0 0.0
2016-Jan-30 05:33N 30°14' W 093°15'0 0.0
2016-Jan-30 04:33N 30°14' W 093°15'0 0.0
2016-Jan-30 03:33N 30°14' W 093°15'1 0.7
2016-Jan-30 02:33N 30°13' W 093°16'0 0.0
2016-Jan-30 01:33N 30°13' W 093°16'0 0.0
2016-Jan-30 00:33N 30°13' W 093°16'0 0.0
2016-Jan-29 23:33N 30°13' W 093°16'0 0.0
2016-Jan-29 22:33N 30°13' W 093°16'0 0.0
2016-Jan-29 21:33N 30°13' W 093°16'0 0.0
2016-Jan-29 20:33N 30°13' W 093°16'0 0.0
2016-Jan-29 19:33N 30°13' W 093°16'0 0.0
2016-Jan-29 18:33N 30°13' W 093°16'0 0.0
2016-Jan-29 17:33N 30°13' W 093°16'0 0.0
2016-Jan-29 16:33N 30°13' W 093°16'0 0.0
2016-Jan-29 15:33N 30°13' W 093°16'0 0.0
2016-Jan-29 14:33N 30°13' W 093°16'0 0.0
2016-Jan-29 13:33N 30°13' W 093°16'0 0.0
2016-Jan-29 12:33N 30°13' W 093°16'0 0.0
2016-Jan-29 11:33N 30°13' W 093°16'0 0.0
2016-Jan-29 10:33N 30°13' W 093°16'0 0.0
2016-Jan-29 09:33N 30°13' W 093°16'0 0.0
2016-Jan-29 08:33N 30°13' W 093°16'0 0.0
2016-Jan-29 07:33N 30°13' W 093°16'0 0.0
2016-Jan-29 06:33N 30°13' W 093°16'0 0.0
2016-Jan-29 05:33N 30°13' W 093°16'0 0.0
2016-Jan-29 04:33N 30°13' W 093°16'0 0.0
2016-Jan-29 03:33N 30°13' W 093°16'0 0.0
2016-Jan-29 02:33N 30°13' W 093°16'0 0.0
2016-Jan-29 01:33N 30°13' W 093°16'  
Track history (hours):
 
Tides and Currents Weather Stations Pressure Air Temp Water Temp Dewpoint Dewpoint Depression Visibility Wind Speed Wind Dir Waves Ship Positions

Earl Gonsoulin

Owner: LeBeouf Bros. Towing, L.L.C., Houma, LA. More information available from US FCC via Universal Licensing System and Coast Guard Vessel Documentation Center.

Last reported at 2016-Feb-08 01:33 UTC. Time now 2016-Feb-08 02:09 UTC.
Position N 30°05' W 093°20'.

Length 21 m; draft 3 m.

Type: Tug. MMSI: 367005550.

Date/timePositionNaut miles runAvg speedWind from/ knotsBaromVisibWave heightAir tempDewpointWater temp
2016-Feb-08 01:33N 30°05' W 093°20'0 0.4
2016-Feb-08 00:33N 30°05' W 093°20'0 0.0
2016-Feb-07 23:33N 30°05' W 093°20'0 0.0
2016-Feb-07 22:33N 30°05' W 093°20'0 0.0
2016-Feb-07 21:33N 30°05' W 093°20'0 0.0
2016-Feb-07 20:33N 30°05' W 093°20'0 0.0
2016-Feb-07 19:33N 30°05' W 093°20'0 0.0
2016-Feb-07 18:33N 30°05' W 093°20'0 0.0
2016-Feb-07 17:33N 30°05' W 093°20'0 0.0
2016-Feb-07 16:34N 30°05' W 093°20'0 0.0
2016-Feb-07 15:33N 30°05' W 093°20'0 0.2
2016-Feb-07 14:33N 30°05' W 093°20'3 3.0
2016-Feb-07 13:33N 30°04' W 093°22'2 2.0
2016-Feb-07 12:33N 30°04' W 093°25'6 5.6
2016-Feb-07 11:33N 30°04' W 093°31'4 3.7
2016-Feb-07 10:33N 30°04' W 093°35'6 6.3
2016-Feb-07 09:33N 30°03' W 093°43'6 5.8
2016-Feb-07 08:33N 29°59' W 093°48'6 6.2
2016-Feb-07 07:32N 29°55' W 093°53'65 3.1
2016-Feb-06 10:33N 29°44' W 095°07'0 0.0
2016-Feb-06 09:33N 29°44' W 095°07'0 0.0
2016-Feb-06 08:31N 29°44' W 095°07'0 0.0
2016-Feb-06 07:33N 29°44' W 095°07'0 0.0
2016-Feb-06 06:29N 29°44' W 095°07'0 0.0
2016-Feb-06 05:31N 29°44' W 095°07'0 0.0
2016-Feb-06 04:29N 29°44' W 095°07'0 0.3
2016-Feb-06 03:25N 29°44' W 095°07'4 1.5
2016-Feb-06 00:28N 29°48' W 095°04'0 0.0
2016-Feb-05 23:23N 29°47' W 095°04'2 0.1
2016-Feb-04 04:12N 29°46' W 095°06'2 0.8
2016-Feb-04 01:33N 29°47' W 095°04'1 0.9
2016-Feb-04 00:19N 29°46' W 095°05'4 5.3
2016-Feb-03 23:32N 29°43' W 095°01'7 6.8
2016-Feb-03 22:33N 29°38' W 094°58'41 2.5
2016-Feb-03 06:20N 29°41' W 094°11'4 4.9
2016-Feb-03 05:33N 29°43' W 094°07'5 5.1
2016-Feb-03 04:33N 29°46' W 094°03'5 4.9
2016-Feb-03 03:33N 29°49' W 093°58'5 4.8
2016-Feb-03 02:33N 29°53' W 093°55'5 5.2
2016-Feb-03 01:33N 29°57' W 093°52'1 1.1
2016-Feb-03 00:33N 29°58' W 093°51'1 0.8
2016-Feb-02 23:33N 29°58' W 093°52'0 0.0
2016-Feb-02 22:33N 29°58' W 093°52'1 0.7
2016-Feb-02 21:33N 29°58' W 093°51'4 3.5
2016-Feb-02 20:33N 29°60' W 093°47'5 4.7
2016-Feb-02 19:29N 30°03' W 093°43'0 0.2
2016-Feb-02 18:30N 30°03' W 093°43'0 0.0
2016-Feb-02 17:33N 30°03' W 093°43'0 0.0
2016-Feb-02 16:33N 30°03' W 093°43'0 0.0
2016-Feb-02 13:06N 30°03' W 093°43'0 0.0
2016-Feb-02 12:33N 30°03' W 093°43'0 0.0
2016-Feb-02 11:33N 30°03' W 093°43'0 0.0
2016-Feb-02 10:33N 30°03' W 093°43'0 0.0
2016-Feb-02 09:33N 30°03' W 093°43'0 0.0
2016-Feb-02 08:33N 30°03' W 093°43'0 0.0
2016-Feb-02 07:33N 30°03' W 093°43'0 0.0
2016-Feb-02 06:33N 30°03' W 093°43'0 0.0
2016-Feb-02 05:26N 30°03' W 093°43'0 0.0
2016-Feb-02 04:30N 30°03' W 093°43'0 0.0
2016-Feb-02 03:33N 30°03' W 093°43'0 0.0
2016-Feb-02 02:32N 30°03' W 093°43'0 0.1
2016-Feb-02 01:33N 30°04' W 093°43'1 0.7
2016-Feb-02 00:33N 30°03' W 093°42'5 5.3
2016-Feb-01 23:33N 30°04' W 093°36'5 4.8
2016-Feb-01 22:33N 30°04' W 093°31'5 4.8
2016-Feb-01 21:34N 30°04' W 093°25'4 4.3
2016-Feb-01 20:33N 30°05' W 093°20'4 4.2
2016-Feb-01 19:33N 30°09' W 093°20'2 2.5
2016-Feb-01 18:33N 30°11' W 093°18'0 0.1
2016-Feb-01 17:33N 30°11' W 093°18'0 0.1
2016-Feb-01 16:33N 30°11' W 093°18'0 0.0
2016-Feb-01 15:33N 30°11' W 093°18'0 0.0
2016-Feb-01 14:33N 30°11' W 093°18'0 0.0
2016-Feb-01 13:33N 30°11' W 093°18'0 0.0
2016-Feb-01 12:33N 30°11' W 093°18'0 0.0
2016-Feb-01 11:33N 30°11' W 093°18'0 0.0
2016-Feb-01 10:33N 30°11' W 093°18'0 0.0
2016-Feb-01 09:33N 30°11' W 093°18'0 0.0
2016-Feb-01 08:33N 30°11' W 093°18'0 0.0
2016-Feb-01 07:33N 30°11' W 093°18'0 0.0
2016-Feb-01 06:33N 30°11' W 093°18'1 0.6
2016-Feb-01 05:33N 30°11' W 093°18'3 3.3
2016-Feb-01 04:33N 30°14' W 093°15'0 0.2
2016-Feb-01 03:33N 30°14' W 093°15'0 0.0
2016-Feb-01 02:33N 30°14' W 093°15'0 0.0
2016-Feb-01 01:33N 30°14' W 093°15'0 0.0
2016-Feb-01 00:33N 30°14' W 093°15'0 0.0
2016-Jan-31 23:33N 30°14' W 093°15'0 0.0
2016-Jan-31 22:33N 30°14' W 093°15'0 0.0
2016-Jan-31 21:33N 30°14' W 093°15'0 0.0
2016-Jan-31 20:33N 30°14' W 093°15'0 0.0
2016-Jan-31 19:33N 30°14' W 093°15'0 0.0
2016-Jan-31 18:33N 30°14' W 093°15'0 0.0
2016-Jan-31 17:33N 30°14' W 093°15'0 0.0
2016-Jan-31 16:33N 30°14' W 093°15'0 0.0
2016-Jan-31 15:33N 30°14' W 093°15'0 0.0
2016-Jan-31 14:33N 30°14' W 093°15'0 0.0
2016-Jan-31 13:33N 30°14' W 093°15'0 0.0
2016-Jan-31 12:34N 30°14' W 093°15'0 0.0
2016-Jan-31 11:33N 30°14' W 093°15'0 0.0
2016-Jan-31 10:33N 30°14' W 093°15'0 0.0
2016-Jan-31 09:33N 30°14' W 093°15'0 0.0
2016-Jan-31 08:33N 30°14' W 093°15'0 0.0
2016-Jan-31 07:33N 30°14' W 093°15'0 0.0
2016-Jan-31 06:33N 30°14' W 093°15'0 0.0
2016-Jan-31 05:33N 30°14' W 093°15'0 0.0
2016-Jan-31 04:33N 30°14' W 093°15'0 0.0
2016-Jan-31 03:33N 30°14' W 093°15'0 0.0
2016-Jan-31 02:33N 30°14' W 093°15'0 0.0
2016-Jan-31 01:33N 30°14' W 093°15'0 0.0
2016-Jan-31 00:33N 30°14' W 093°15'0 0.0
2016-Jan-30 23:33N 30°14' W 093°15'0 0.0
2016-Jan-30 22:33N 30°14' W 093°15'0 0.0
2016-Jan-30 21:33N 30°14' W 093°15'0 0.0
2016-Jan-30 20:33N 30°14' W 093°15'0 0.0
2016-Jan-30 19:33N 30°14' W 093°15'0 0.0
2016-Jan-30 18:33N 30°14' W 093°15'0 0.0
2016-Jan-30 17:33N 30°14' W 093°15'0 0.0
2016-Jan-30 16:33N 30°14' W 093°15'0 0.0
2016-Jan-30 15:33N 30°14' W 093°15'0 0.0
2016-Jan-30 14:33N 30°14' W 093°15'0 0.0
2016-Jan-30 13:33N 30°14' W 093°15'0 0.0
2016-Jan-30 12:33N 30°14' W 093°15'0 0.0
2016-Jan-30 11:34N 30°14' W 093°15'0 0.0
2016-Jan-30 10:33N 30°14' W 093°15'0 0.0
2016-Jan-30 09:33N 30°14' W 093°15'0 0.0
2016-Jan-30 08:33N 30°14' W 093°15'0 0.0
2016-Jan-30 07:33N 30°14' W 093°15'0 0.0
2016-Jan-30 06:33N 30°14' W 093°15'0 0.0
2016-Jan-30 05:33N 30°14' W 093°15'0 0.0
2016-Jan-30 04:33N 30°14' W 093°15'0 0.0
2016-Jan-30 03:33N 30°14' W 093°15'1 0.7
2016-Jan-30 02:33N 30°13' W 093°16'0 0.0
2016-Jan-30 01:33N 30°13' W 093°16'0 0.0
2016-Jan-30 00:33N 30°13' W 093°16'0 0.0
2016-Jan-29 23:33N 30°13' W 093°16'0 0.0
2016-Jan-29 22:33N 30°13' W 093°16'0 0.0
2016-Jan-29 21:33N 30°13' W 093°16'0 0.0
2016-Jan-29 20:33N 30°13' W 093°16'0 0.0
2016-Jan-29 19:33N 30°13' W 093°16'0 0.0
2016-Jan-29 18:33N 30°13' W 093°16'0 0.0
2016-Jan-29 17:33N 30°13' W 093°16'0 0.0
2016-Jan-29 16:33N 30°13' W 093°16'0 0.0
2016-Jan-29 15:33N 30°13' W 093°16'0 0.0
2016-Jan-29 14:33N 30°13' W 093°16'0 0.0
2016-Jan-29 13:33N 30°13' W 093°16'0 0.0
2016-Jan-29 12:33N 30°13' W 093°16'0 0.0
2016-Jan-29 11:33N 30°13' W 093°16'0 0.0
2016-Jan-29 10:33N 30°13' W 093°16'0 0.0
2016-Jan-29 09:33N 30°13' W 093°16'0 0.0
2016-Jan-29 08:33N 30°13' W 093°16'0 0.0
2016-Jan-29 07:33N 30°13' W 093°16'0 0.0
2016-Jan-29 06:33N 30°13' W 093°16'0 0.0
2016-Jan-29 05:33N 30°13' W 093°16'0 0.0
2016-Jan-29 04:33N 30°13' W 093°16'0 0.0
2016-Jan-29 03:33N 30°13' W 093°16'0 0.0
2016-Jan-29 02:33N 30°13' W 093°16'0 0.0
2016-Jan-29 01:33N 30°13' W 093°16'  

Dump ship's entire track history